Time;durP1;ratioP1;P1;durP2;ratioP2;P2;SDS_P1;SDS_P2;PMS_P1;PMS_P2;Temp;Humidity;BMP_temperature;BMP_pressure;BME280_temperature;BME280_humidity;BME280_pressure;Samples;Min_cycle;Max_cycle;Signal;HPM_P1;HPM_P2
2023/04/21 00:01:15;;;;;;;;;;;22.00;57.90;;;;;;1558775;74;1647;-64
2023/04/21 00:03:18;;;;;;;;;;;22.00;57.70;;;;;;1571369;74;678;-64
2023/04/21 00:05:20;;;;;;;;;;;22.00;57.60;;;;;;1558566;74;1187;-64
2023/04/21 00:07:22;;;;;;;;;;;22.00;57.50;;;;;;1588999;74;732;-64
2023/04/21 00:09:24;;;;;;;;;;;22.00;57.70;;;;;;1568280;74;720;-64
2023/04/21 00:11:26;;;;;;;;;;;22.10;57.70;;;;;;1563157;75;1080;-64
2023/04/21 00:13:28;;;;;;;;;;;22.10;57.60;;;;;;1561631;75;797;-64
2023/04/21 00:15:29;;;;;;;;;;;22.10;57.60;;;;;;1568148;74;1497;-64
2023/04/21 00:17:31;;;;;;;;;;;22.10;57.70;;;;;;1556570;74;1919;-64
2023/04/21 00:19:34;;;;;;;;;;;22.00;57.60;;;;;;1554321;74;709;-65
2023/04/21 00:21:35;;;;;;;;;;;22.00;57.60;;;;;;1552728;74;784;-64
2023/04/21 00:23:37;;;;;;;;;;;22.00;57.60;;;;;;1560796;74;793;-64
2023/04/21 00:25:39;;;;;;;;;;;22.00;57.60;;;;;;1554534;74;1146;-65
2023/04/21 00:27:41;;;;;;;;;;;22.00;57.60;;;;;;1560022;74;1309;-64
2023/04/21 00:29:43;;;;;;;;;;;22.00;57.50;;;;;;1561275;75;756;-64
2023/04/21 00:31:45;;;;;;;;;;;22.00;57.60;;;;;;1562495;74;828;-64
2023/04/21 00:33:47;;;;;;;;;;;22.00;57.60;;;;;;1551671;75;773;-65
2023/04/21 00:35:49;;;;;;;;;;;21.90;57.50;;;;;;1567548;74;1120;-65
2023/04/21 00:37:51;;;;;;;;;;;21.90;57.60;;;;;;1560408;75;1916;-65
2023/04/21 00:39:53;;;;;;;;;;;21.90;57.50;;;;;;1560239;74;833;-67
2023/04/21 00:41:56;;;;;;;;;;;22.00;57.50;;;;;;1565251;74;1516;-66
2023/04/21 00:44:05;;;;;;;;;;;22.00;57.30;;;;;;1550890;74;736;-66
2023/04/21 00:46:07;;;;;;;;;;;22.10;57.30;;;;;;1561457;75;1169;-66
2023/04/21 00:48:09;;;;;;;;;;;22.10;57.30;;;;;;1561229;75;725;-65
2023/04/21 00:50:11;;;;;;;;;;;22.00;57.20;;;;;;1561508;75;772;-66
2023/04/21 00:52:13;;;;;;;;;;;22.00;57.40;;;;;;1560193;75;732;-66
2023/04/21 00:54:15;;;;;;;;;;;21.90;57.60;;;;;;1563146;74;1156;-66
2023/04/21 00:56:17;;;;;;;;;;;21.90;57.70;;;;;;1572857;74;1502;-66
2023/04/21 00:58:19;;;;;;;;;;;21.90;57.80;;;;;;1563421;74;1923;-67
2023/04/21 01:00:21;;;;;;;;;;;21.80;58.50;;;;;;1560797;75;736;-68
2023/04/21 01:02:23;;;;;;;;;;;21.70;58.50;;;;;;1560641;75;741;-68
2023/04/21 01:04:25;;;;;;;;;;;21.70;58.70;;;;;;1556915;75;1088;-68
2023/04/21 01:06:28;;;;;;;;;;;21.70;58.80;;;;;;1549128;74;809;-68
2023/04/21 01:08:30;;;;;;;;;;;21.60;58.80;;;;;;1557135;75;668;-66
2023/04/21 01:10:32;;;;;;;;;;;21.60;59.00;;;;;;1558849;74;1547;-66
2023/04/21 01:12:35;;;;;;;;;;;21.60;59.00;;;;;;1555365;74;696;-67
2023/04/21 01:14:38;;;;;;;;;;;21.60;59.10;;;;;;1564138;74;1929;-66
2023/04/21 01:16:39;;;;;;;;;;;21.60;59.00;;;;;;1559324;75;752;-66
2023/04/21 01:18:41;;;;;;;;;;;21.70;59.00;;;;;;1561046;75;1920;-65
2023/04/21 01:20:43;;;;;;;;;;;21.60;58.90;;;;;;1550252;75;791;-66
2023/04/21 01:22:45;;;;;;;;;;;21.60;58.90;;;;;;1561736;75;706;-66
2023/04/21 01:24:47;;;;;;;;;;;21.60;59.10;;;;;;1554325;75;1326;-66
2023/04/21 01:26:49;;;;;;;;;;;21.60;59.10;;;;;;1562067;74;787;-66
2023/04/21 01:28:51;;;;;;;;;;;21.60;59.20;;;;;;1562855;75;764;-66
2023/04/21 01:30:53;;;;;;;;;;;21.60;59.30;;;;;;1564607;74;785;-66
2023/04/21 01:32:57;;;;;;;;;;;21.60;59.10;;;;;;1563224;75;676;-66
2023/04/21 01:34:59;;;;;;;;;;;21.60;59.10;;;;;;1561792;74;1168;-65
2023/04/21 01:37:01;;;;;;;;;;;21.60;59.00;;;;;;1568536;74;740;-66
2023/04/21 01:39:03;;;;;;;;;;;21.60;59.00;;;;;;1563922;75;1939;-66
2023/04/21 01:41:05;;;;;;;;;;;21.60;59.10;;;;;;1564519;75;832;-66
2023/04/21 01:43:08;;;;;;;;;;;21.60;59.10;;;;;;1556327;75;776;-64
2023/04/21 01:45:10;;;;;;;;;;;21.60;59.00;;;;;;1548587;74;1157;-64
2023/04/21 01:47:11;;;;;;;;;;;21.50;59.30;;;;;;1561977;75;650;-64
2023/04/21 01:49:13;;;;;;;;;;;21.60;59.20;;;;;;1562178;74;693;-63
2023/04/21 01:51:15;;;;;;;;;;;21.60;59.20;;;;;;1565822;74;694;-64
2023/04/21 01:53:17;;;;;;;;;;;21.60;59.10;;;;;;1560924;74;1577;-66
2023/04/21 01:55:19;;;;;;;;;;;21.70;58.90;;;;;;1560738;75;1089;-63
2023/04/21 01:57:21;;;;;;;;;;;21.70;58.70;;;;;;1564980;75;832;-63
2023/04/21 01:59:23;;;;;;;;;;;21.80;58.60;;;;;;1552837;75;1930;-62
2023/04/21 02:01:25;;;;;;;;;;;21.80;58.10;;;;;;1556099;74;760;-62
2023/04/21 02:03:26;;;;;;;;;;;21.80;57.80;;;;;;1559841;75;766;-62
2023/04/21 02:05:28;;;;;;;;;;;21.90;57.90;;;;;;1562616;74;1130;-64
2023/04/21 02:07:30;;;;;;;;;;;21.90;57.70;;;;;;1552526;74;1594;-63
2023/04/21 02:09:32;;;;;;;;;;;22.00;57.40;;;;;;1549772;74;718;-63
2023/04/21 02:11:34;;;;;;;;;;;21.90;57.30;;;;;;1569266;74;1093;-64
2023/04/21 02:13:36;;;;;;;;;;;22.00;57.20;;;;;;1561918;74;742;-63
2023/04/21 02:15:38;;;;;;;;;;;22.00;57.10;;;;;;1579855;74;1189;-62
2023/04/21 02:17:41;;;;;;;;;;;22.00;57.00;;;;;;1568042;74;757;-62
2023/04/21 02:19:43;;;;;;;;;;;22.00;56.90;;;;;;1568276;74;772;-64
2023/04/21 02:21:45;;;;;;;;;;;21.90;57.00;;;;;;1570861;74;1522;-62
2023/04/21 02:23:47;;;;;;;;;;;21.90;57.20;;;;;;1565303;74;739;-63
2023/04/21 02:25:49;;;;;;;;;;;21.80;57.20;;;;;;1574769;74;1178;-62
2023/04/21 02:27:50;;;;;;;;;;;21.80;57.40;;;;;;1569985;74;794;-65
2023/04/21 02:29:52;;;;;;;;;;;21.80;57.60;;;;;;1577461;74;751;-68
2023/04/21 02:31:54;;;;;;;;;;;21.80;57.50;;;;;;1569186;74;722;-64
2023/04/21 02:33:56;;;;;;;;;;;21.80;57.60;;;;;;1573875;74;646;-63
2023/04/21 02:35:58;;;;;;;;;;;21.80;57.50;;;;;;1579647;74;1636;-63
2023/04/21 02:38:06;;;;;;;;;;;21.80;57.50;;;;;;1568789;74;1934;-63
2023/04/21 02:40:05;;;;;;;;;;;21.70;57.70;;;;;;1561413;74;1511;-66
2023/04/21 02:42:07;;;;;;;;;;;21.70;57.80;;;;;;1570863;74;688;-65
2023/04/21 02:44:09;;;;;;;;;;;21.80;57.80;;;;;;1579690;74;1166;-65
2023/04/21 02:46:10;;;;;;;;;;;21.70;58.50;;;;;;1563141;74;724;-65
2023/04/21 02:48:12;;;;;;;;;;;21.70;58.90;;;;;;1568608;74;723;-65
2023/04/21 02:50:15;;;;;;;;;;;21.60;59.10;;;;;;1574414;74;1398;-63
2023/04/21 02:52:17;;;;;;;;;;;21.50;58.90;;;;;;1561547;74;785;-63
2023/04/21 02:54:19;;;;;;;;;;;21.60;58.90;;;;;;1577411;74;1169;-63
2023/04/21 02:56:21;;;;;;;;;;;21.70;58.70;;;;;;1566144;74;667;-63
2023/04/21 02:58:23;;;;;;;;;;;21.70;58.50;;;;;;1581222;74;1916;-62
2023/04/21 03:00:25;;;;;;;;;;;21.70;58.10;;;;;;1574248;74;801;-63
2023/04/21 03:02:26;;;;;;;;;;;21.80;57.90;;;;;;1570287;74;1454;-62
2023/04/21 03:04:28;;;;;;;;;;;21.80;57.80;;;;;;1577696;74;1164;-63
2023/04/21 03:06:32;;;;;;;;;;;21.80;57.80;;;;;;1582903;74;841;-62
2023/04/21 03:08:34;;;;;;;;;;;21.90;57.70;;;;;;1570239;74;722;-62
2023/04/21 03:10:36;;;;;;;;;;;21.90;57.50;;;;;;1571951;74;784;-61
2023/04/21 03:12:38;;;;;;;;;;;21.90;57.50;;;;;;1570323;74;1006;-62
2023/04/21 03:14:41;;;;;;;;;;;21.90;57.60;;;;;;1574176;74;1189;-61
2023/04/21 03:16:42;;;;;;;;;;;21.80;57.90;;;;;;1568072;74;1574;-63
2023/04/21 03:18:45;;;;;;;;;;;21.70;58.50;;;;;;1557662;74;1957;-65
2023/04/21 03:20:46;;;;;;;;;;;21.60;58.60;;;;;;1578809;74;704;-62
2023/04/21 03:22:48;;;;;;;;;;;21.70;58.60;;;;;;1566863;74;682;-64
2023/04/21 03:24:50;;;;;;;;;;;21.70;58.10;;;;;;1570401;74;1161;-63
2023/04/21 03:26:52;;;;;;;;;;;21.80;57.90;;;;;;1571232;74;810;-63
2023/04/21 03:28:54;;;;;;;;;;;21.80;57.70;;;;;;1561029;74;752;-65
2023/04/21 03:30:56;;;;;;;;;;;21.90;57.50;;;;;;1566703;74;1549;-62
2023/04/21 03:32:58;;;;;;;;;;;22.00;57.30;;;;;;1567524;74;693;-63
2023/04/21 03:35:00;;;;;;;;;;;22.00;57.10;;;;;;1568519;74;1153;-62
2023/04/21 03:37:02;;;;;;;;;;;22.00;57.00;;;;;;1579344;74;746;-63
2023/04/21 03:39:04;;;;;;;;;;;22.10;56.90;;;;;;1576060;74;1940;-63
2023/04/21 03:41:06;;;;;;;;;;;22.10;56.70;;;;;;1575301;74;733;-61
2023/04/21 03:43:08;;;;;;;;;;;22.10;56.80;;;;;;1568335;74;797;-62
2023/04/21 03:45:10;;;;;;;;;;;22.10;56.70;;;;;;1567137;74;1621;-64
2023/04/21 03:47:12;;;;;;;;;;;22.10;56.60;;;;;;1562355;74;718;-64
2023/04/21 03:49:14;;;;;;;;;;;22.10;56.70;;;;;;1572567;74;772;-64
2023/04/21 03:51:15;;;;;;;;;;;22.10;56.70;;;;;;1576424;74;756;-62
2023/04/21 03:53:17;;;;;;;;;;;22.10;56.80;;;;;;1568209;74;677;-63
2023/04/21 03:55:19;;;;;;;;;;;22.00;56.80;;;;;;1569842;74;1140;-63
2023/04/21 03:57:21;;;;;;;;;;;22.00;56.80;;;;;;1555503;74;684;-64
2023/04/21 03:59:23;;;;;;;;;;;22.00;56.80;;;;;;1572114;74;1945;-63
2023/04/21 04:01:25;;;;;;;;;;;21.90;56.80;;;;;;1570876;74;721;-65
2023/04/21 04:03:27;;;;;;;;;;;21.90;57.10;;;;;;1567822;74;759;-64
2023/04/21 04:05:29;;;;;;;;;;;22.00;57.00;;;;;;1566971;74;1143;-63
2023/04/21 04:07:33;;;;;;;;;;;21.90;56.80;;;;;;1569697;74;784;-63
2023/04/21 04:09:35;;;;;;;;;;;21.90;56.90;;;;;;1566356;74;735;-63
2023/04/21 04:11:37;;;;;;;;;;;21.90;57.10;;;;;;1570511;74;802;-64
2023/04/21 04:13:39;;;;;;;;;;;21.90;57.20;;;;;;1568546;74;1537;-64
2023/04/21 04:15:41;;;;;;;;;;;21.80;57.30;;;;;;1568202;74;1197;-64
2023/04/21 04:17:42;;;;;;;;;;;21.80;57.80;;;;;;1561168;74;733;-63
2023/04/21 04:19:44;;;;;;;;;;;21.70;57.90;;;;;;1571283;74;1941;-65
2023/04/21 04:21:46;;;;;;;;;;;21.70;58.70;;;;;;1580434;74;801;-63
2023/04/21 04:23:50;;;;;;;;;;;21.70;58.70;;;;;;1580283;74;776;-63
2023/04/21 04:25:52;;;;;;;;;;;21.60;58.80;;;;;;1564305;74;1144;-64
2023/04/21 04:27:54;;;;;;;;;;;21.60;59.00;;;;;;1571014;74;1572;-64
2023/04/21 04:29:56;;;;;;;;;;;21.60;58.90;;;;;;1570936;74;739;-64
2023/04/21 04:32:00;;;;;;;;;;;21.60;59.00;;;;;;1566089;74;764;-64
2023/04/21 04:34:02;;;;;;;;;;;21.50;58.90;;;;;;1575021;74;1611;-64
2023/04/21 04:36:04;;;;;;;;;;;21.60;58.90;;;;;;1573498;74;1160;-64
2023/04/21 04:38:06;;;;;;;;;;;21.50;58.90;;;;;;1569852;74;699;-64
2023/04/21 04:40:12;;;;;;;;;;;21.50;58.90;;;;;;1570407;74;1930;-64
2023/04/21 04:42:14;;;;;;;;;;;21.50;58.90;;;;;;1558074;74;1587;-64
2023/04/21 04:44:16;;;;;;;;;;;21.50;58.90;;;;;;1573199;74;1156;-64
2023/04/21 04:46:19;;;;;;;;;;;21.50;59.00;;;;;;1573066;74;757;-64
2023/04/21 04:48:21;;;;;;;;;;;21.50;58.90;;;;;;1572767;74;719;-64
2023/04/21 04:50:23;;;;;;;;;;;21.40;58.80;;;;;;1562254;74;749;-64
2023/04/21 04:52:25;;;;;;;;;;;21.50;59.30;;;;;;1574542;74;782;-63
2023/04/21 04:54:28;;;;;;;;;;;21.50;59.20;;;;;;1571149;74;1148;-64
2023/04/21 04:56:30;;;;;;;;;;;21.50;59.20;;;;;;1568667;74;1516;-64
2023/04/21 04:58:31;;;;;;;;;;;21.50;59.20;;;;;;1577452;74;812;-64
2023/04/21 05:00:33;;;;;;;;;;;21.40;59.10;;;;;;1577756;74;1947;-64
2023/04/21 05:02:35;;;;;;;;;;;21.40;59.10;;;;;;1573641;74;765;-64
2023/04/21 05:04:37;;;;;;;;;;;21.50;59.20;;;;;;1578672;74;1136;-63
2023/04/21 05:06:39;;;;;;;;;;;21.50;59.20;;;;;;1575499;74;676;-63
2023/04/21 05:08:41;;;;;;;;;;;21.40;59.10;;;;;;1575457;74;689;-63
2023/04/21 05:10:43;;;;;;;;;;;21.40;59.10;;;;;;1562121;74;1606;-63
2023/04/21 05:12:45;;;;;;;;;;;21.40;59.20;;;;;;1568519;74;987;-63
2023/04/21 05:14:47;;;;;;;;;;;21.40;59.10;;;;;;1563362;74;1199;-64
2023/04/21 05:16:49;;;;;;;;;;;21.50;59.20;;;;;;1566678;74;728;-64
2023/04/21 05:18:52;;;;;;;;;;;21.40;59.00;;;;;;1568682;74;1911;-64
2023/04/21 05:20:55;;;;;;;;;;;21.50;59.30;;;;;;1564937;74;971;-64
2023/04/21 05:22:57;;;;;;;;;;;21.50;59.40;;;;;;1550907;74;750;-64
2023/04/21 05:24:59;;;;;;;;;;;21.50;59.40;;;;;;1569317;74;1772;-63
2023/04/21 05:27:01;;;;;;;;;;;21.50;59.50;;;;;;1564146;74;844;-63
2023/04/21 05:29:03;;;;;;;;;;;21.50;59.30;;;;;;1558437;74;762;-64
2023/04/21 05:31:05;;;;;;;;;;;21.50;59.40;;;;;;1558714;74;777;-64
2023/04/21 05:33:08;;;;;;;;;;;21.50;59.20;;;;;;1569887;74;746;-66
2023/04/21 05:35:10;;;;;;;;;;;21.50;59.10;;;;;;1563543;74;1178;-64
2023/04/21 05:37:12;;;;;;;;;;;21.50;59.00;;;;;;1552176;74;1572;-65
2023/04/21 05:39:15;;;;;;;;;;;21.50;59.00;;;;;;1564037;74;1920;-63
2023/04/21 05:41:17;;;;;;;;;;;21.60;59.00;;;;;;1563392;74;736;-66
2023/04/21 05:43:19;;;;;;;;;;;21.50;59.30;;;;;;1566333;74;743;-64
2023/04/21 05:45:21;;;;;;;;;;;21.60;59.20;;;;;;1558124;74;1154;-64
2023/04/21 05:47:23;;;;;;;;;;;21.60;59.00;;;;;;1574625;74;673;-64
2023/04/21 05:49:25;;;;;;;;;;;21.60;58.90;;;;;;1570892;74;691;-64
2023/04/21 05:51:27;;;;;;;;;;;21.60;58.70;;;;;;1572483;74;1553;-64
2023/04/21 05:53:28;;;;;;;;;;;21.60;58.50;;;;;;1577260;74;726;-64
2023/04/21 05:55:30;;;;;;;;;;;21.60;58.00;;;;;;1554630;74;1159;-65
2023/04/21 05:57:32;;;;;;;;;;;21.70;57.70;;;;;;1552838;74;688;-64
2023/04/21 05:59:34;;;;;;;;;;;21.70;57.60;;;;;;1556830;74;1949;-64
2023/04/21 06:01:36;;;;;;;;;;;21.70;57.60;;;;;;1551875;74;722;-64
2023/04/21 06:03:38;;;;;;;;;;;21.80;57.70;;;;;;1555443;74;728;-64
2023/04/21 06:05:40;;;;;;;;;;;21.80;57.70;;;;;;1563516;74;1568;-65
2023/04/21 06:07:41;;;;;;;;;;;21.70;57.80;;;;;;1560245;74;728;-64
2023/04/21 06:09:44;;;;;;;;;;;21.70;57.90;;;;;;1568577;74;780;-65
2023/04/21 06:11:45;;;;;;;;;;;21.70;58.10;;;;;;1553559;74;741;-65
2023/04/21 06:13:47;;;;;;;;;;;21.60;58.10;;;;;;1563197;74;1084;-65
2023/04/21 06:15:49;;;;;;;;;;;21.50;58.10;;;;;;1560885;74;1183;-65
2023/04/21 06:17:54;;;;;;;;;;;21.60;58.10;;;;;;1546242;75;702;-65
2023/04/21 06:19:56;;;;;;;;;;;21.60;58.10;;;;;;1566002;74;1903;-64
2023/04/21 06:21:58;;;;;;;;;;;21.60;58.00;;;;;;1562338;75;749;-66
2023/04/21 06:24:00;;;;;;;;;;;21.60;58.00;;;;;;1577263;74;713;-65
2023/04/21 06:26:05;;;;;;;;;;;21.60;57.90;;;;;;1566370;74;1089;-67
2023/04/21 06:28:07;;;;;;;;;;;21.60;57.80;;;;;;1539800;75;780;-65
2023/04/21 06:30:09;;;;;;;;;;;21.60;57.80;;;;;;1556161;74;701;-66
2023/04/21 06:32:11;;;;;;;;;;;21.70;57.70;;;;;;1571651;74;730;-65
2023/04/21 06:34:13;;;;;;;;;;;21.70;57.60;;;;;;1559886;74;1553;-65
2023/04/21 06:36:15;;;;;;;;;;;21.80;57.50;;;;;;1559193;75;675;-65
2023/04/21 06:38:17;;;;;;;;;;;21.80;57.30;;;;;;1550401;75;652;-65
2023/04/21 06:40:18;;;;;;;;;;;21.80;57.20;;;;;;1563082;74;1914;-65
2023/04/21 06:42:20;;;;;;;;;;;21.80;57.10;;;;;;1561512;75;748;-64
2023/04/21 06:44:22;;;;;;;;;;;21.80;57.00;;;;;;1561588;74;1144;-64
2023/04/21 06:46:24;;;;;;;;;;;21.80;56.80;;;;;;1555905;74;794;-65
2023/04/21 06:48:26;;;;;;;;;;;21.90;56.80;;;;;;1555142;74;1550;-66
2023/04/21 06:50:28;;;;;;;;;;;21.90;56.60;;;;;;1544836;74;717;-66
2023/04/21 06:52:30;;;;;;;;;;;21.90;56.50;;;;;;1568021;75;668;-65
2023/04/21 06:54:32;;;;;;;;;;;21.90;56.40;;;;;;1567087;75;1171;-65
2023/04/21 06:56:34;;;;;;;;;;;21.90;56.40;;;;;;1561769;75;724;-65
2023/04/21 06:58:36;;;;;;;;;;;22.00;56.30;;;;;;1560863;75;717;-65
2023/04/21 07:00:38;;;;;;;;;;;22.10;56.20;;;;;;1560815;75;1944;-65
2023/04/21 07:02:44;;;;;;;;;;;22.00;55.90;;;;;;1558129;75;1377;-65
2023/04/21 07:04:43;;;;;;;;;;;22.20;55.90;;;;;;1560817;75;1519;-65
2023/04/21 07:06:45;;;;;;;;;;;22.10;55.70;;;;;;1561795;75;775;-65
2023/04/21 07:08:47;;;;;;;;;;;22.10;55.70;;;;;;1565460;74;717;-65
2023/04/21 07:10:49;;;;;;;;;;;22.20;55.50;;;;;;1560697;74;725;-65
2023/04/21 07:12:51;;;;;;;;;;;22.20;55.50;;;;;;1564547;75;681;-65
2023/04/21 07:14:53;;;;;;;;;;;22.20;55.50;;;;;;1560922;74;1175;-64
2023/04/21 07:16:56;;;;;;;;;;;22.20;55.50;;;;;;1562040;75;1552;-65
2023/04/21 07:18:58;;;;;;;;;;;22.20;55.40;;;;;;1550097;75;729;-67
2023/04/21 07:21:00;;;;;;;;;;;22.20;55.50;;;;;;1572006;74;1930;-65
2023/04/21 07:23:02;;;;;;;;;;;22.20;55.50;;;;;;1554179;74;706;-65
2023/04/21 07:25:07;;;;;;;;;;;22.20;55.50;;;;;;1568051;74;1181;-65
2023/04/21 07:27:08;;;;;;;;;;;22.20;55.60;;;;;;1565957;74;878;-65
2023/04/21 07:29:10;;;;;;;;;;;22.20;55.50;;;;;;1572950;74;732;-65
2023/04/21 07:31:12;;;;;;;;;;;22.20;55.50;;;;;;1558795;74;1493;-66
2023/04/21 07:33:14;;;;;;;;;;;22.30;55.50;;;;;;1576211;74;739;-66
2023/04/21 07:35:16;;;;;;;;;;;22.30;55.50;;;;;;1569747;74;1236;-63
2023/04/21 07:37:18;;;;;;;;;;;22.30;55.30;;;;;;1562618;75;807;-65
2023/04/21 07:39:20;;;;;;;;;;;22.30;55.40;;;;;;1559561;74;755;-65
2023/04/21 07:41:22;;;;;;;;;;;22.40;55.40;;;;;;1564091;74;1925;-65
2023/04/21 07:43:25;;;;;;;;;;;22.20;55.30;;;;;;1554558;75;681;-65
2023/04/21 07:45:27;;;;;;;;;;;22.30;55.40;;;;;;1560640;74;1852;-65
2023/04/21 07:47:29;;;;;;;;;;;22.20;55.30;;;;;;1571318;75;581;-64
2023/04/21 07:49:31;;;;;;;;;;;22.30;55.30;;;;;;1567028;75;684;-65
2023/04/21 07:51:33;;;;;;;;;;;22.40;55.30;;;;;;1566089;74;662;-65
2023/04/21 07:53:35;;;;;;;;;;;22.40;55.40;;;;;;1560113;74;661;-65
2023/04/21 07:55:37;;;;;;;;;;;22.40;55.40;;;;;;1562767;75;1147;-65
2023/04/21 07:57:39;;;;;;;;;;;22.40;55.50;;;;;;1559457;75;711;-65
2023/04/21 07:59:41;;;;;;;;;;;22.40;55.50;;;;;;1570942;74;1776;-66
2023/04/21 08:01:43;;;;;;;;;;;22.30;55.50;;;;;;1562048;75;1920;-67
2023/04/21 08:03:45;;;;;;;;;;;22.40;55.50;;;;;;1552689;74;716;-65
2023/04/21 08:05:47;;;;;;;;;;;22.40;55.50;;;;;;1556780;74;1165;-64
2023/04/21 08:07:48;;;;;;;;;;;22.40;55.30;;;;;;1563723;74;746;-65
2023/04/21 08:09:50;;;;;;;;;;;22.50;55.20;;;;;;1562897;74;741;-65
2023/04/21 08:11:53;;;;;;;;;;;22.50;55.10;;;;;;1558891;74;1343;-64
2023/04/21 08:13:56;;;;;;;;;;;22.60;55.00;;;;;;1560125;74;795;-65
2023/04/21 08:15:58;;;;;;;;;;;22.60;54.90;;;;;;1553082;76;1155;-65
2023/04/21 08:18:00;;;;;;;;;;;22.70;54.90;;;;;;1547671;76;789;-65
2023/04/21 08:20:02;;;;;;;;;;;22.70;54.90;;;;;;1542930;76;1915;-65
2023/04/21 08:22:04;;;;;;;;;;;22.70;54.80;;;;;;1543559;76;769;-65
2023/04/21 08:24:06;;;;;;;;;;;22.70;54.80;;;;;;1542756;76;797;-65
2023/04/21 08:26:08;;;;;;;;;;;22.70;54.70;;;;;;1539656;76;1343;-64
2023/04/21 08:28:10;;;;;;;;;;;22.70;54.70;;;;;;1542643;76;648;-66
2023/04/21 08:30:12;;;;;;;;;;;22.70;54.60;;;;;;1542903;75;700;-65
2023/04/21 08:32:14;;;;;;;;;;;22.70;54.60;;;;;;1540823;75;674;-64
2023/04/21 08:34:18;;;;;;;;;;;22.70;54.50;;;;;;1545154;75;1170;-65
2023/04/21 08:36:20;;;;;;;;;;;22.70;54.40;;;;;;1538084;76;627;-65
2023/04/21 08:38:22;;;;;;;;;;;22.70;54.40;;;;;;1544231;76;772;-65
2023/04/21 08:40:25;;;;;;;;;;;22.70;54.50;;;;;;1544785;75;1942;-65
2023/04/21 08:42:27;;;;;;;;;;;22.70;54.40;;;;;;1544358;76;2027;-65
2023/04/21 08:44:29;;;;;;;;;;;22.70;54.40;;;;;;1545289;75;1145;-65
2023/04/21 08:46:31;;;;;;;;;;;22.70;54.30;;;;;;1552847;76;664;-65
2023/04/21 08:48:36;;;;;;;;;;;22.70;54.30;;;;;;1544239;76;742;-64
2023/04/21 08:50:38;;;;;;;;;;;22.80;54.40;;;;;;1545561;75;695;-65
2023/04/21 08:52:40;;;;;;;;;;;22.70;54.30;;;;;;1542316;76;795;-65
2023/04/21 08:54:42;;;;;;;;;;;22.80;54.20;;;;;;1543195;75;1574;-65
2023/04/21 08:56:44;;;;;;;;;;;22.70;54.20;;;;;;1548563;75;685;-66
2023/04/21 08:58:46;;;;;;;;;;;22.70;54.30;;;;;;1543312;76;766;-64
2023/04/21 09:00:48;;;;;;;;;;;22.80;54.30;;;;;;1544708;76;1941;-65
2023/04/21 09:02:54;;;;;;;;;;;22.90;54.60;;;;;;1544157;76;711;-65
2023/04/21 09:04:58;;;;;;;;;;;22.90;54.60;;;;;;1508270;77;1149;-67
2023/04/21 09:07:00;;;;;;;;;;;22.80;54.40;;;;;;1543888;76;734;-65
2023/04/21 09:09:04;;;;;;;;;;;22.90;54.40;;;;;;1548807;76;1391;-65
2023/04/21 09:11:06;;;;;;;;;;;22.80;54.30;;;;;;1545923;76;799;-65
2023/04/21 09:13:07;;;;;;;;;;;22.90;54.40;;;;;;1558844;76;703;-65
2023/04/21 09:15:11;;;;;;;;;;;22.90;54.60;;;;;;1545689;76;1133;-64
2023/04/21 09:17:14;;;;;;;;;;;22.80;54.50;;;;;;1563450;75;706;-65
2023/04/21 09:19:16;;;;;;;;;;;22.80;54.70;;;;;;1560522;75;780;-65
2023/04/21 09:21:18;;;;;;;;;;;22.90;54.70;;;;;;1559884;75;1934;-64
2023/04/21 09:23:20;;;;;;;;;;;22.90;54.70;;;;;;1553569;75;1556;-65
2023/04/21 09:25:22;;;;;;;;;;;23.00;54.80;;;;;;1550954;75;1189;-65
2023/04/21 09:27:24;;;;;;;;;;;22.90;54.80;;;;;;1559894;75;765;-65
2023/04/21 09:29:26;;;;;;;;;;;22.90;54.70;;;;;;1559185;75;809;-65
2023/04/21 09:31:28;;;;;;;;;;;22.90;54.80;;;;;;1557128;75;729;-65
2023/04/21 09:33:31;;;;;;;;;;;22.90;54.80;;;;;;1556191;75;728;-66
2023/04/21 09:35:34;;;;;;;;;;;22.90;54.80;;;;;;1559523;75;1179;-65
2023/04/21 09:37:35;;;;;;;;;;;22.90;55.70;;;;;;1555418;75;1586;-65
2023/04/21 09:39:37;;;;;;;;;;;22.90;55.20;;;;;;1564358;75;670;-64
2023/04/21 09:41:40;;;;;;;;;;;22.90;55.20;;;;;;1559809;75;1938;-64
2023/04/21 09:43:42;;;;;;;;;;;22.90;55.30;;;;;;1556880;75;776;-67
2023/04/21 09:45:43;;;;;;;;;;;23.00;55.50;;;;;;1558478;74;1518;-65
2023/04/21 09:47:47;;;;;;;;;;;22.90;56.20;;;;;;1561915;74;1109;-65
2023/04/21 09:49:50;;;;;;;;;;;22.90;55.70;;;;;;1563548;74;1307;-65
2023/04/21 09:51:52;;;;;;;;;;;22.90;55.70;;;;;;1561577;74;1622;-65
2023/04/21 09:53:56;;;;;;;;;;;22.90;55.70;;;;;;1555294;74;1127;-65
2023/04/21 09:55:58;;;;;;;;;;;22.90;55.70;;;;;;1552864;74;1969;-65
2023/04/21 09:58:00;;;;;;;;;;;23.00;55.70;;;;;;1562418;74;1497;-67
2023/04/21 10:00:08;;;;;;;;;;;22.90;55.70;;;;;;1558337;74;1300;-64
2023/04/21 10:02:07;;;;;;;;;;;22.80;55.60;;;;;;1559460;74;1939;-67
2023/04/21 10:04:09;;;;;;;;;;;22.90;55.70;;;;;;1559357;74;1486;-64
2023/04/21 10:06:11;;;;;;;;;;;22.90;55.80;;;;;;1557485;74;1492;-66
2023/04/21 10:08:13;;;;;;;;;;;22.90;55.70;;;;;;1561471;74;1531;-66
2023/04/21 10:10:16;;;;;;;;;;;22.90;55.70;;;;;;1559493;75;1101;-67
2023/04/21 10:12:18;;;;;;;;;;;22.90;55.70;;;;;;1560898;74;1094;-67
2023/04/21 10:14:20;;;;;;;;;;;22.90;55.60;;;;;;1565227;74;1465;-65
2023/04/21 10:16:22;;;;;;;;;;;22.90;55.70;;;;;;1559355;75;1527;-64
2023/04/21 10:18:24;;;;;;;;;;;22.90;55.60;;;;;;1524830;76;1552;-67
2023/04/21 10:20:26;;;;;;;;;;;22.90;55.60;;;;;;1560174;74;1161;-65
2023/04/21 10:22:28;;;;;;;;;;;22.90;55.60;;;;;;1560286;75;1946;-67
2023/04/21 10:24:30;;;;;;;;;;;22.90;55.60;;;;;;1562000;75;1151;-66
2023/04/21 10:26:33;;;;;;;;;;;22.80;55.50;;;;;;1552321;74;1141;-65
2023/04/21 10:28:39;;;;;;;;;;;22.90;55.60;;;;;;1549400;74;1128;-67
2023/04/21 10:30:41;;;;;;;;;;;22.90;55.50;;;;;;1519100;77;1476;-66
2023/04/21 10:32:44;;;;;;;;;;;22.90;55.60;;;;;;1490960;79;1506;-67
2023/04/21 10:34:46;;;;;;;;;;;22.90;55.60;;;;;;1508635;77;1180;-67
2023/04/21 10:36:51;;;;;;;;;;;22.90;55.60;;;;;;1510260;76;1136;-67
2023/04/21 10:38:56;;;;;;;;;;;22.90;55.50;;;;;;1520835;78;1153;-66
2023/04/21 10:40:59;;;;;;;;;;;22.80;55.50;;;;;;1519699;77;1921;-66
2023/04/21 10:43:03;;;;;;;;;;;22.80;55.50;;;;;;1521102;77;2008;-67
2023/04/21 10:45:06;;;;;;;;;;;22.90;55.50;;;;;;1516562;77;1214;-67
2023/04/21 10:47:08;;;;;;;;;;;22.90;55.50;;;;;;1490666;78;1747;-67
2023/04/21 10:49:11;;;;;;;;;;;22.90;55.50;;;;;;1506659;77;1024;-66
2023/04/21 10:51:13;;;;;;;;;;;22.90;55.50;;;;;;1508529;77;1094;-66
2023/04/21 10:53:15;;;;;;;;;;;22.90;55.60;;;;;;1511366;77;1183;-69
2023/04/21 10:55:17;;;;;;;;;;;22.80;55.40;;;;;;1499298;78;1196;-66
2023/04/21 10:57:19;;;;;;;;;;;22.90;55.50;;;;;;1563960;74;1114;-65
2023/04/21 10:59:21;;;;;;;;;;;22.70;55.50;;;;;;1563235;74;1189;-66
2023/04/21 11:01:23;;;;;;;;;;;22.70;55.40;;;;;;1562385;74;1948;-66
2023/04/21 11:03:25;;;;;;;;;;;22.70;55.50;;;;;;1571092;74;1103;-66
2023/04/21 11:05:29;;;;;;;;;;;22.80;55.50;;;;;;1559115;74;1115;-65
2023/04/21 11:07:31;;;;;;;;;;;22.70;55.40;;;;;;1570064;74;1666;-66
2023/04/21 11:09:33;;;;;;;;;;;22.80;55.40;;;;;;1564966;74;1068;-67
2023/04/21 11:11:35;;;;;;;;;;;22.70;55.40;;;;;;1560456;74;1124;-66
2023/04/21 11:13:37;;;;;;;;;;;22.70;55.50;;;;;;1558297;74;1192;-66
2023/04/21 11:15:40;;;;;;;;;;;22.70;55.40;;;;;;1533301;76;1616;-66
2023/04/21 11:17:43;;;;;;;;;;;22.80;55.30;;;;;;1558782;74;1050;-66
2023/04/21 11:19:46;;;;;;;;;;;22.80;55.30;;;;;;1551214;76;1110;-67
2023/04/21 11:21:48;;;;;;;;;;;22.70;55.30;;;;;;1562004;74;1934;-65
2023/04/21 11:23:53;;;;;;;;;;;22.70;55.30;;;;;;1563587;74;1054;-66
2023/04/21 11:25:55;;;;;;;;;;;22.70;55.30;;;;;;1554484;74;1518;-66
2023/04/21 11:27:58;;;;;;;;;;;22.70;55.40;;;;;;1537264;76;1075;-64
2023/04/21 11:30:02;;;;;;;;;;;22.80;55.40;;;;;;1568051;74;1548;-66
2023/04/21 11:32:05;;;;;;;;;;;22.70;55.40;;;;;;1555415;74;1132;-66
2023/04/21 11:34:07;;;;;;;;;;;22.70;55.40;;;;;;1567490;74;1855;-66
2023/04/21 11:36:09;;;;;;;;;;;22.70;55.40;;;;;;1561691;74;1126;-67
2023/04/21 11:38:13;;;;;;;;;;;22.70;55.40;;;;;;1556363;74;1128;-67
2023/04/21 11:40:15;;;;;;;;;;;22.70;55.50;;;;;;1562074;74;1668;-65
2023/04/21 11:42:23;;;;;;;;;;;22.70;55.50;;;;;;1561729;74;1933;-65
2023/04/21 11:44:40;;;;;;;;;;;22.70;55.50;;;;;;1564931;74;1408;-66
2023/04/21 11:46:48;;;;;;;;;;;22.60;55.50;;;;;;1561291;74;1081;-66
2023/04/21 11:49:03;;;;;;;;;;;22.60;55.50;;;;;;1567319;74;1103;-65
2023/04/21 11:51:05;;;;;;;;;;;22.60;55.60;;;;;;1553653;74;1289;-67
2023/04/21 11:53:07;;;;;;;;;;;22.60;55.60;;;;;;1567128;74;1090;-65
2023/04/21 11:55:14;;;;;;;;;;;22.60;55.60;;;;;;1567167;74;1205;-66
2023/04/21 11:57:17;;;;;;;;;;;22.60;55.60;;;;;;1565591;74;1689;-65
2023/04/21 11:59:21;;;;;;;;;;;22.60;55.50;;;;;;1568337;74;1087;-66
2023/04/21 12:01:22;;;;;;;;;;;22.60;55.50;;;;;;1537892;76;1952;-65
2023/04/21 12:03:25;;;;;;;;;;;22.60;55.50;;;;;;1576682;74;1087;-67
2023/04/21 12:05:29;;;;;;;;;;;22.60;55.50;;;;;;1566858;74;1175;-66
2023/04/21 12:07:31;;;;;;;;;;;22.60;55.50;;;;;;1568681;74;1174;-67